Time;durP1;ratioP1;P1;durP2;ratioP2;P2;SDS_P1;SDS_P2;PMS_P1;PMS_P2;Temp;Humidity;BMP_temperature;BMP_pressure;BME280_temperature;BME280_humidity;BME280_pressure;Samples;Min_cycle;Max_cycle;Signal;HPM_P1;HPM_P2
2024/01/16 00:02:07;;;;;;;0.30;0.30;;;;;;;;;;5073725;28;20059;-78
2024/01/16 00:04:37;;;;;;;1.98;1.05;;;;;;;;;;5076257;28;20044;-79
2024/01/16 00:07:04;;;;;;;1.02;0.95;;;;;;;;;;5086178;28;20033;-79
2024/01/16 00:09:35;;;;;;;2.65;2.08;;;;;;;;;;5081765;28;20402;-78
2024/01/16 00:12:04;;;;;;;2.22;1.88;;;;;;;;;;5076836;28;20550;-78
2024/01/16 00:14:34;;;;;;;0.00;0.00;;;;;;;;;;5079877;28;20122;-78
2024/01/16 00:17:02;;;;;;;1.58;1.25;;;;;;;;;;5076450;28;20040;-78
2024/01/16 00:19:29;;;;;;;3.85;2.95;;;;;;;;;;5084266;28;20060;-78
2024/01/16 00:21:57;;;;;;;0.28;0.28;;;;;;;;;;5086683;28;20040;-78
2024/01/16 00:24:24;;;;;;;6.93;1.85;;;;;;;;;;5078012;28;20048;-78
2024/01/16 00:26:51;;;;;;;2.50;2.30;;;;;;;;;;5073994;28;20622;-78
2024/01/16 00:29:19;;;;;;;0.60;0.60;;;;;;;;;;5057935;28;20490;-78
2024/01/16 00:31:46;;;;;;;1.73;1.63;;;;;;;;;;5076586;28;20032;-78
2024/01/16 00:34:13;;;;;;;0.88;0.85;;;;;;;;;;5084838;28;20040;-78
2024/01/16 00:36:41;;;;;;;0.10;0.10;;;;;;;;;;5070874;28;20044;-78
2024/01/16 00:39:09;;;;;;;0.20;0.20;;;;;;;;;;5060919;28;20045;-78
2024/01/16 00:41:36;;;;;;;0.30;0.30;;;;;;;;;;5075801;28;20057;-78
2024/01/16 00:44:04;;;;;;;0.38;0.38;;;;;;;;;;5072867;28;20090;-78
2024/01/16 00:46:31;;;;;;;1.33;1.23;;;;;;;;;;5057315;28;20036;-78
2024/01/16 00:48:59;;;;;;;2.47;1.75;;;;;;;;;;5066227;28;20441;-78
2024/01/16 00:51:26;;;;;;;0.77;0.77;;;;;;;;;;5058200;28;20052;-78
2024/01/16 00:53:54;;;;;;;0.10;0.10;;;;;;;;;;5076856;28;20043;-78
2024/01/16 00:56:21;;;;;;;0.52;0.52;;;;;;;;;;5075378;28;20048;-78
2024/01/16 00:58:51;;;;;;;0.20;0.20;;;;;;;;;;5065672;28;20030;-78
2024/01/16 01:01:19;;;;;;;0.60;0.50;;;;;;;;;;5066806;28;20040;-78
2024/01/16 01:03:46;;;;;;;1.15;1.05;;;;;;;;;;5075252;28;20766;-79
2024/01/16 01:06:13;;;;;;;0.85;0.77;;;;;;;;;;5079620;28;20391;-78
2024/01/16 01:08:41;;;;;;;1.42;1.33;;;;;;;;;;5072467;28;20045;-78
2024/01/16 01:11:08;;;;;;;2.38;1.27;;;;;;;;;;5073900;28;20146;-78
2024/01/16 01:13:36;;;;;;;0.20;0.20;;;;;;;;;;5075664;28;20122;-79
2024/01/16 01:16:03;;;;;;;0.50;0.50;;;;;;;;;;5074970;28;20135;-79
2024/01/16 01:18:30;;;;;;;0.50;0.50;;;;;;;;;;5069509;28;20178;-79
2024/01/16 01:20:58;;;;;;;0.10;0.10;;;;;;;;;;5071321;28;20521;-78
2024/01/16 01:23:25;;;;;;;1.55;0.88;;;;;;;;;;5087115;28;20051;-78
2024/01/16 01:25:53;;;;;;;0.17;0.17;;;;;;;;;;5073310;28;20040;-78
2024/01/16 01:28:20;;;;;;;1.85;1.38;;;;;;;;;;5080107;28;20040;-78
2024/01/16 01:30:47;;;;;;;2.05;1.95;;;;;;;;;;5076017;28;20119;-78
2024/01/16 01:33:15;;;;;;;0.57;0.57;;;;;;;;;;5084145;28;20068;-79
2024/01/16 01:35:42;;;;;;;0.30;0.30;;;;;;;;;;5074566;28;20525;-78
2024/01/16 01:38:10;;;;;;;1.75;0.85;;;;;;;;;;5081542;28;20502;-78
2024/01/16 01:40:37;;;;;;;0.38;0.38;;;;;;;;;;5080967;28;20094;-78
2024/01/16 01:43:20;;;;;;;0.10;0.10;;;;;;;;;;5073930;28;20075;-78
2024/01/16 01:45:56;;;;;;;1.45;1.17;;;;;;;;;;5076674;28;20151;-79
2024/01/16 01:48:23;;;;;;;1.80;1.65;;;;;;;;;;5083001;28;20036;-78
2024/01/16 01:50:51;;;;;;;1.23;1.23;;;;;;;;;;5076348;28;20106;-78
2024/01/16 01:53:18;;;;;;;1.67;1.38;;;;;;;;;;5076873;28;20056;-78
2024/01/16 01:55:46;;;;;;;0.45;0.45;;;;;;;;;;5076749;28;20047;-78
2024/01/16 01:58:14;;;;;;;0.30;0.30;;;;;;;;;;5076530;28;20043;-79
2024/01/16 02:00:41;;;;;;;0.80;0.80;;;;;;;;;;5047064;28;20055;-78
2024/01/16 02:03:08;;;;;;;0.40;0.40;;;;;;;;;;5053973;28;20063;-79
2024/01/16 02:05:38;;;;;;;0.43;0.43;;;;;;;;;;5090637;28;20064;-79
2024/01/16 02:08:06;;;;;;;1.00;0.80;;;;;;;;;;5067011;28;20040;-79
2024/01/16 02:10:35;;;;;;;0.10;0.10;;;;;;;;;;5087456;28;20119;-79
2024/01/16 02:13:03;;;;;;;2.95;1.77;;;;;;;;;;5062775;28;20072;-79
2024/01/16 02:15:30;;;;;;;0.98;0.95;;;;;;;;;;5055976;28;20070;-79
2024/01/16 02:17:58;;;;;;;2.25;1.92;;;;;;;;;;5082801;28;20067;-79
2024/01/16 02:20:25;;;;;;;0.10;0.10;;;;;;;;;;5097055;28;20035;-79
2024/01/16 02:22:54;;;;;;;1.58;0.93;;;;;;;;;;5095497;28;20067;-79
2024/01/16 02:25:21;;;;;;;1.48;1.08;;;;;;;;;;5094472;28;20044;-79
2024/01/16 02:27:49;;;;;;;0.80;0.80;;;;;;;;;;5083136;28;20049;-79
2024/01/16 02:30:16;;;;;;;1.20;1.20;;;;;;;;;;5088482;28;20044;-78
2024/01/16 02:32:44;;;;;;;0.70;0.70;;;;;;;;;;5085311;28;20044;-79
2024/01/16 02:35:11;;;;;;;1.63;1.52;;;;;;;;;;5080814;28;20107;-79
2024/01/16 02:37:38;;;;;;;0.80;0.68;;;;;;;;;;5090180;28;20058;-79
2024/01/16 02:40:06;;;;;;;0.63;0.28;;;;;;;;;;5073418;28;20056;-79
2024/01/16 02:42:33;;;;;;;0.10;0.10;;;;;;;;;;5096211;28;20060;-79
2024/01/16 02:45:01;;;;;;;1.95;1.13;;;;;;;;;;5089554;28;20060;-78
2024/01/16 02:47:29;;;;;;;0.40;0.40;;;;;;;;;;5081995;28;20044;-78
2024/01/16 02:49:57;;;;;;;0.30;0.30;;;;;;;;;;5086993;28;20048;-79
2024/01/16 02:52:24;;;;;;;0.25;0.20;;;;;;;;;;5085255;28;20079;-79
2024/01/16 02:54:51;;;;;;;0.75;0.75;;;;;;;;;;5080232;28;20405;-79
2024/01/16 02:57:19;;;;;;;0.10;0.10;;;;;;;;;;5082545;28;20052;-79
2024/01/16 02:59:46;;;;;;;2.83;0.93;;;;;;;;;;5079477;28;20055;-79
2024/01/16 03:02:14;;;;;;;0.70;0.70;;;;;;;;;;5084085;28;20117;-78
2024/01/16 03:04:41;;;;;;;1.65;0.85;;;;;;;;;;5080010;28;20068;-79
2024/01/16 03:07:09;;;;;;;0.60;0.60;;;;;;;;;;5086282;28;20113;-79
2024/01/16 03:09:36;;;;;;;0.80;0.80;;;;;;;;;;5081064;28;20040;-79
2024/01/16 03:12:04;;;;;;;0.10;0.10;;;;;;;;;;5054758;28;21493;-78
2024/01/16 03:14:35;;;;;;;0.73;0.73;;;;;;;;;;5073733;28;20040;-79
2024/01/16 03:17:03;;;;;;;0.20;0.20;;;;;;;;;;5076819;28;20040;-78
2024/01/16 03:19:31;;;;;;;0.82;0.52;;;;;;;;;;5084063;28;20039;-79
2024/01/16 03:21:59;;;;;;;1.75;0.95;;;;;;;;;;5083993;28;20044;-79
2024/01/16 03:24:26;;;;;;;0.10;0.10;;;;;;;;;;5082070;28;20054;-79
2024/01/16 03:26:53;;;;;;;0.10;0.10;;;;;;;;;;5054573;28;20511;-79
2024/01/16 03:29:21;;;;;;;3.75;1.10;;;;;;;;;;5081006;28;20066;-79
2024/01/16 03:31:48;;;;;;;0.20;0.20;;;;;;;;;;5062361;28;20036;-79
2024/01/16 03:34:16;;;;;;;0.38;0.38;;;;;;;;;;5081868;28;20040;-78
2024/01/16 03:36:43;;;;;;;0.20;0.20;;;;;;;;;;5082814;28;20059;-79
2024/01/16 03:39:11;;;;;;;0.10;0.10;;;;;;;;;;5063101;28;20037;-79
2024/01/16 03:41:39;;;;;;;1.33;1.10;;;;;;;;;;5090809;28;20505;-79
2024/01/16 03:44:06;;;;;;;2.28;1.08;;;;;;;;;;5090649;28;20131;-79
2024/01/16 03:46:34;;;;;;;0.10;0.10;;;;;;;;;;5086095;28;20049;-78
2024/01/16 03:49:01;;;;;;;1.20;1.20;;;;;;;;;;5090967;28;20552;-81
2024/01/16 03:51:28;;;;;;;0.43;0.43;;;;;;;;;;5087135;28;20036;-78
2024/01/16 03:53:56;;;;;;;0.20;0.20;;;;;;;;;;5081178;28;20055;-78
2024/01/16 03:56:23;;;;;;;0.25;0.25;;;;;;;;;;5079625;28;20424;-79
2024/01/16 03:58:51;;;;;;;0.73;0.73;;;;;;;;;;5080362;28;20052;-79
2024/01/16 04:01:18;;;;;;;0.10;0.10;;;;;;;;;;5071709;28;20810;-79
2024/01/16 04:03:45;;;;;;;0.52;0.52;;;;;;;;;;5080347;28;20068;-79
2024/01/16 04:06:17;;;;;;;0.22;0.22;;;;;;;;;;5088091;28;20047;-79
2024/01/16 04:08:45;;;;;;;1.33;1.15;;;;;;;;;;5085433;28;20063;-79
2024/01/16 04:11:13;;;;;;;0.35;0.35;;;;;;;;;;5067902;28;20105;-78
2024/01/16 04:13:41;;;;;;;0.75;0.68;;;;;;;;;;5088597;28;20052;-79
2024/01/16 04:16:08;;;;;;;0.93;0.93;;;;;;;;;;5089737;28;20044;-78
2024/01/16 04:18:39;;;;;;;0.50;0.50;;;;;;;;;;5083209;28;20108;-79
2024/01/16 04:21:07;;;;;;;1.13;1.02;;;;;;;;;;5084798;28;20529;-79
2024/01/16 04:23:34;;;;;;;0.20;0.20;;;;;;;;;;5079733;28;20048;-79
2024/01/16 04:26:02;;;;;;;0.85;0.55;;;;;;;;;;5078214;28;20049;-79
2024/01/16 04:28:29;;;;;;;0.75;0.75;;;;;;;;;;5085181;28;20040;-79
2024/01/16 04:30:57;;;;;;;0.30;0.30;;;;;;;;;;5072835;28;20044;-79
2024/01/16 04:33:24;;;;;;;0.20;0.20;;;;;;;;;;5090127;28;20045;-80
2024/01/16 04:35:54;;;;;;;0.52;0.52;;;;;;;;;;5093607;28;20492;-79
2024/01/16 04:38:22;;;;;;;1.45;1.05;;;;;;;;;;5098886;28;20063;-79
2024/01/16 04:40:49;;;;;;;0.75;0.65;;;;;;;;;;5084064;28;20052;-78
2024/01/16 04:43:17;;;;;;;3.47;1.05;;;;;;;;;;5075346;28;20040;-78
2024/01/16 04:45:44;;;;;;;1.67;1.10;;;;;;;;;;5063917;28;20044;-79
2024/01/16 04:48:12;;;;;;;4.25;0.90;;;;;;;;;;5079239;28;20051;-79
2024/01/16 04:50:39;;;;;;;5.47;1.40;;;;;;;;;;5063846;28;20044;-79
2024/01/16 04:53:07;;;;;;;1.13;1.00;;;;;;;;;;5078859;28;20071;-78
2024/01/16 04:55:34;;;;;;;0.43;0.43;;;;;;;;;;5086142;28;20353;-79
2024/01/16 04:58:01;;;;;;;0.30;0.30;;;;;;;;;;5087604;28;20055;-79
2024/01/16 05:00:29;;;;;;;0.60;0.60;;;;;;;;;;5070460;28;20048;-80
2024/01/16 05:02:56;;;;;;;0.63;0.38;;;;;;;;;;5064142;28;20048;-79
2024/01/16 05:05:24;;;;;;;1.17;0.77;;;;;;;;;;5083030;28;20573;-79
2024/01/16 05:07:55;;;;;;;0.10;0.10;;;;;;;;;;5083634;28;20047;-79
2024/01/16 05:10:23;;;;;;;1.15;0.98;;;;;;;;;;5090231;28;20044;-79
2024/01/16 05:12:50;;;;;;;1.48;0.73;;;;;;;;;;5066312;28;20052;-79
2024/01/16 05:15:18;;;;;;;0.40;0.32;;;;;;;;;;5081081;28;20126;-79
2024/01/16 05:17:45;;;;;;;0.70;0.70;;;;;;;;;;5081627;28;20052;-80
2024/01/16 05:20:13;;;;;;;0.40;0.40;;;;;;;;;;5077610;28;20053;-79
2024/01/16 05:22:40;;;;;;;0.52;0.52;;;;;;;;;;5079991;28;20040;-79
2024/01/16 05:25:07;;;;;;;1.67;1.48;;;;;;;;;;5083531;28;20052;-80
2024/01/16 05:28:09;;;;;;;0.77;0.45;;;;;;;;;;5080508;22;20055;-81
2024/01/16 05:31:38;;;;;;;;;;;;;;;;;;;;;
2024/01/16 05:35:13;;;;;;;;;;;;;;;;;;;;;
2024/01/16 05:43:29;;;;;;;0.10;0.10;;;;;;;;;;5003639;28;20708;-81
2024/01/16 05:54:58;;;;;;;0.43;0.32;;;;;;;;;;4967513;28;20081;-81
2024/01/16 05:59:06;;;;;;;0.20;0.20;;;;;;;;;;4948798;28;20051;-81
2024/01/16 06:02:46;;;;;;;0.20;0.20;;;;;;;;;;4933286;28;20082;-81
2024/01/16 06:05:58;;;;;;;0.32;0.32;;;;;;;;;;4888413;29;20049;-81
2024/01/16 06:09:13;;;;;;;0.50;0.50;;;;;;;;;;4888504;29;20584;-81
2024/01/16 06:12:24;;;;;;;0.20;0.20;;;;;;;;;;4886968;29;20683;-80
2024/01/16 06:15:19;;;;;;;0.50;0.43;;;;;;;;;;4936186;28;20129;-81
2024/01/16 06:19:01;;;;;;;;;;;;;;;;;;;;;
2024/01/16 06:22:43;;;;;;;0.10;0.10;;;;;;;;;;4987371;28;20069;-81
2024/01/16 06:33:17;;;;;;;0.40;0.40;;;;;;;;;;4922356;28;20042;-82
2024/01/16 06:36:08;;;;;;;0.10;0.10;;;;;;;;;;4984876;22;20058;-76
2024/01/16 06:38:38;;;;;;;1.02;0.93;;;;;;;;;;5073671;28;20063;-76
2024/01/16 06:41:06;;;;;;;0.20;0.20;;;;;;;;;;5072178;28;20127;-76
2024/01/16 06:43:34;;;;;;;1.15;0.95;;;;;;;;;;5052819;28;20578;-76
2024/01/16 06:46:02;;;;;;;0.28;0.28;;;;;;;;;;5062201;28;20563;-76
2024/01/16 06:48:30;;;;;;;0.40;0.40;;;;;;;;;;5057794;28;20075;-76
2024/01/16 06:50:58;;;;;;;0.45;0.40;;;;;;;;;;5058711;28;20410;-76
2024/01/16 06:53:26;;;;;;;0.15;0.15;;;;;;;;;;5059446;28;20452;-76
2024/01/16 06:55:53;;;;;;;0.90;0.90;;;;;;;;;;5042202;28;20494;-76
2024/01/16 06:58:21;;;;;;;0.63;0.63;;;;;;;;;;5059450;28;20155;-76
2024/01/16 07:00:49;;;;;;;0.90;0.90;;;;;;;;;;5056600;28;20037;-76
2024/01/16 07:03:17;;;;;;;0.82;0.80;;;;;;;;;;5059703;28;20410;-76
2024/01/16 07:05:44;;;;;;;0.45;0.45;;;;;;;;;;5059707;28;20389;-76
2024/01/16 07:08:12;;;;;;;0.32;0.32;;;;;;;;;;5060196;28;20513;-76
2024/01/16 07:10:39;;;;;;;0.55;0.55;;;;;;;;;;5060087;28;20048;-76
2024/01/16 07:13:07;;;;;;;1.55;0.85;;;;;;;;;;5054672;28;20151;-76
2024/01/16 07:15:35;;;;;;;0.30;0.30;;;;;;;;;;5066629;28;20540;-76
2024/01/16 07:18:02;;;;;;;1.20;0.75;;;;;;;;;;5059164;28;20049;-76
2024/01/16 07:20:30;;;;;;;1.65;0.63;;;;;;;;;;5057532;28;20646;-75
2024/01/16 07:22:57;;;;;;;0.28;0.28;;;;;;;;;;5062922;28;20560;-76
2024/01/16 07:25:25;;;;;;;0.40;0.40;;;;;;;;;;5062081;28;20091;-76
2024/01/16 07:27:52;;;;;;;0.20;0.20;;;;;;;;;;5066462;28;20051;-76
2024/01/16 07:30:20;;;;;;;0.38;0.38;;;;;;;;;;5062694;28;20639;-76
2024/01/16 07:32:48;;;;;;;0.10;0.10;;;;;;;;;;5063714;28;20048;-76
2024/01/16 07:35:16;;;;;;;0.35;0.35;;;;;;;;;;5063355;28;20052;-76
2024/01/16 07:37:43;;;;;;;0.20;0.20;;;;;;;;;;5063807;28;20469;-76
2024/01/16 07:40:12;;;;;;;0.40;0.40;;;;;;;;;;5063422;28;20052;-76
2024/01/16 07:42:39;;;;;;;1.42;1.42;;;;;;;;;;5060811;28;20048;-76
2024/01/16 07:45:07;;;;;;;0.95;0.88;;;;;;;;;;5060262;28;20072;-76
2024/01/16 07:47:36;;;;;;;0.20;0.20;;;;;;;;;;5042118;28;20053;-76
2024/01/16 07:50:04;;;;;;;0.38;0.38;;;;;;;;;;5036450;28;20040;-76
2024/01/16 07:52:35;;;;;;;0.40;0.40;;;;;;;;;;5047657;28;20500;-76
2024/01/16 07:55:04;;;;;;;0.35;0.35;;;;;;;;;;5061198;28;20041;-76
2024/01/16 07:57:31;;;;;;;0.35;0.30;;;;;;;;;;5059904;28;20532;-76
2024/01/16 07:59:59;;;;;;;0.25;0.25;;;;;;;;;;5065343;28;20201;-76
2024/01/16 08:02:37;;;;;;;0.10;0.10;;;;;;;;;;5061690;28;20048;-75
2024/01/16 08:05:05;;;;;;;0.20;0.20;;;;;;;;;;5055389;28;20536;-76
2024/01/16 08:07:34;;;;;;;0.40;0.40;;;;;;;;;;5046860;28;20052;-76
2024/01/16 08:10:02;;;;;;;0.40;0.40;;;;;;;;;;5054778;28;20876;-77
2024/01/16 08:12:30;;;;;;;1.38;0.65;;;;;;;;;;5055643;28;20206;-76
2024/01/16 08:14:57;;;;;;;1.38;1.27;;;;;;;;;;5055841;28;20128;-76
2024/01/16 08:17:25;;;;;;;0.30;0.30;;;;;;;;;;5056655;28;20040;-76
2024/01/16 08:19:54;;;;;;;1.10;1.00;;;;;;;;;;5048668;28;20048;-75
2024/01/16 08:22:22;;;;;;;0.30;0.30;;;;;;;;;;5049199;28;21138;-76
2024/01/16 08:24:50;;;;;;;0.45;0.43;;;;;;;;;;5039429;28;20187;-77
2024/01/16 08:27:19;;;;;;;0.30;0.30;;;;;;;;;;5056213;28;20047;-76
2024/01/16 08:29:49;;;;;;;0.30;0.30;;;;;;;;;;5060380;28;20053;-76
2024/01/16 08:32:18;;;;;;;0.25;0.25;;;;;;;;;;5054494;28;20506;-76
2024/01/16 08:34:45;;;;;;;0.88;0.88;;;;;;;;;;5050829;28;20465;-75
2024/01/16 08:37:14;;;;;;;0.38;0.38;;;;;;;;;;5049426;28;20053;-75
2024/01/16 08:39:43;;;;;;;0.10;0.10;;;;;;;;;;5062175;28;20506;-76
2024/01/16 08:42:11;;;;;;;0.50;0.50;;;;;;;;;;5058050;28;20052;-76
2024/01/16 08:44:39;;;;;;;0.68;0.68;;;;;;;;;;5061691;28;20106;-76
2024/01/16 08:47:07;;;;;;;1.10;1.10;;;;;;;;;;5062114;28;20517;-76
2024/01/16 08:49:38;;;;;;;0.55;0.55;;;;;;;;;;5064413;28;20036;-76
2024/01/16 08:52:07;;;;;;;1.00;1.00;;;;;;;;;;5064471;28;20052;-76
2024/01/16 08:54:35;;;;;;;0.35;0.35;;;;;;;;;;5034630;28;20593;-75
2024/01/16 08:57:02;;;;;;;0.70;0.70;;;;;;;;;;5054293;28;20052;-76
2024/01/16 08:59:31;;;;;;;0.88;0.88;;;;;;;;;;5063883;28;20570;-75
2024/01/16 09:01:58;;;;;;;0.50;0.43;;;;;;;;;;5057752;28;20498;-76
2024/01/16 09:04:26;;;;;;;1.45;1.38;;;;;;;;;;5062121;28;20057;-76
2024/01/16 09:06:54;;;;;;;0.20;0.20;;;;;;;;;;5061000;28;20041;-76
2024/01/16 09:09:21;;;;;;;0.47;0.47;;;;;;;;;;5042562;28;20052;-76
2024/01/16 09:11:49;;;;;;;0.55;0.38;;;;;;;;;;5040701;28;20409;-76
2024/01/16 09:14:17;;;;;;;0.45;0.45;;;;;;;;;;5033822;28;20048;-76
2024/01/16 09:16:45;;;;;;;0.10;0.10;;;;;;;;;;5059881;28;20052;-76
2024/01/16 09:19:13;;;;;;;0.30;0.30;;;;;;;;;;5044992;28;20068;-76
2024/01/16 09:21:40;;;;;;;0.73;0.73;;;;;;;;;;5046552;28;20047;-76
2024/01/16 09:24:08;;;;;;;0.47;0.47;;;;;;;;;;5061451;28;20048;-77
2024/01/16 09:26:36;;;;;;;0.68;0.63;;;;;;;;;;5062519;28;20051;-77
2024/01/16 09:29:04;;;;;;;0.20;0.20;;;;;;;;;;5061955;28;20049;-76
2024/01/16 09:31:32;;;;;;;1.10;0.98;;;;;;;;;;5060802;28;20204;-77
2024/01/16 09:33:59;;;;;;;1.40;1.30;;;;;;;;;;5062740;28;20130;-76
2024/01/16 09:36:29;;;;;;;0.70;0.68;;;;;;;;;;5062760;28;20055;-77
2024/01/16 09:38:56;;;;;;;0.30;0.30;;;;;;;;;;5043490;28;20119;-76
2024/01/16 09:41:25;;;;;;;0.20;0.20;;;;;;;;;;5062595;28;20048;-76
2024/01/16 09:43:53;;;;;;;0.40;0.40;;;;;;;;;;5061978;28;20041;-76
2024/01/16 09:46:23;;;;;;;1.70;1.58;;;;;;;;;;5061717;28;20399;-76
2024/01/16 09:48:52;;;;;;;0.10;0.10;;;;;;;;;;5063821;28;20052;-76
2024/01/16 09:51:20;;;;;;;0.40;0.40;;;;;;;;;;5062136;28;20045;-76
2024/01/16 09:53:47;;;;;;;0.40;0.40;;;;;;;;;;5060786;28;20041;-76
2024/01/16 09:56:16;;;;;;;0.52;0.52;;;;;;;;;;5059900;28;20048;-76
2024/01/16 09:58:44;;;;;;;0.28;0.28;;;;;;;;;;5060618;28;20071;-76
2024/01/16 10:01:13;;;;;;;0.20;0.20;;;;;;;;;;5060546;28;20043;-76
2024/01/16 10:03:41;;;;;;;0.35;0.35;;;;;;;;;;5050249;28;20048;-76
2024/01/16 10:06:09;;;;;;;1.58;1.25;;;;;;;;;;5060532;28;20129;-76
2024/01/16 10:08:37;;;;;;;0.20;0.20;;;;;;;;;;5041084;28;20461;-76
2024/01/16 10:11:05;;;;;;;0.52;0.52;;;;;;;;;;5061727;28;20036;-76
2024/01/16 10:13:33;;;;;;;0.30;0.30;;;;;;;;;;5059546;28;20045;-76
2024/01/16 10:16:01;;;;;;;1.60;1.50;;;;;;;;;;5060414;28;20075;-76
2024/01/16 10:18:30;;;;;;;0.75;0.75;;;;;;;;;;5060453;28;20395;-76
2024/01/16 10:20:58;;;;;;;1.02;0.57;;;;;;;;;;5061071;28;20153;-76
2024/01/16 10:23:30;;;;;;;0.25;0.25;;;;;;;;;;5064361;28;20411;-76
2024/01/16 10:26:07;;;;;;;1.85;1.00;;;;;;;;;;5059762;28;20067;-76
2024/01/16 10:28:35;;;;;;;1.20;1.05;;;;;;;;;;5063321;28;20051;-76
2024/01/16 10:31:03;;;;;;;3.83;0.98;;;;;;;;;;5064679;28;20406;-76
2024/01/16 10:33:32;;;;;;;0.32;0.32;;;;;;;;;;5059516;28;20051;-76
2024/01/16 10:36:16;;;;;;;0.70;0.68;;;;;;;;;;5059820;28;20059;-76
2024/01/16 10:38:44;;;;;;;0.57;0.57;;;;;;;;;;5057896;28;20106;-77
2024/01/16 10:41:17;;;;;;;0.98;0.65;;;;;;;;;;5061894;28;20045;-77
2024/01/16 10:43:45;;;;;;;0.32;0.32;;;;;;;;;;5063489;28;20510;-76
2024/01/16 10:46:16;;;;;;;0.32;0.32;;;;;;;;;;5059362;28;20040;-75
2024/01/16 10:48:45;;;;;;;0.32;0.32;;;;;;;;;;5061315;28;20037;-76
2024/01/16 10:51:17;;;;;;;0.82;0.82;;;;;;;;;;5067345;28;20541;-76
2024/01/16 10:53:46;;;;;;;1.08;0.90;;;;;;;;;;5061901;28;20044;-76
2024/01/16 10:56:15;;;;;;;0.30;0.30;;;;;;;;;;5066886;28;20149;-76
2024/01/16 10:58:44;;;;;;;0.63;0.63;;;;;;;;;;5066449;28;20067;-76
2024/01/16 11:01:16;;;;;;;0.60;0.60;;;;;;;;;;5040970;28;20080;-77
2024/01/16 11:03:48;;;;;;;2.08;0.60;;;;;;;;;;5058540;28;20121;-76
2024/01/16 11:06:16;;;;;;;;;;;;;;;;;;5064010;28;20048;-76
2024/01/16 11:08:47;;;;;;;7.55;0.85;;;;;;;;;;5039920;28;19924;-77
2024/01/16 11:11:15;;;;;;;0.40;0.40;;;;;;;;;;5059262;28;20814;-76
2024/01/16 11:13:44;;;;;;;0.43;0.43;;;;;;;;;;5067164;28;20052;-76
2024/01/16 11:16:12;;;;;;;1.95;0.47;;;;;;;;;;5060986;28;20564;-76
2024/01/16 11:18:40;;;;;;;0.50;0.50;;;;;;;;;;5062161;28;20253;-77
2024/01/16 11:21:09;;;;;;;0.22;0.22;;;;;;;;;;5060425;28;20460;-76
2024/01/16 11:23:45;;;;;;;0.70;0.70;;;;;;;;;;5066234;28;20044;-76
2024/01/16 11:26:27;;;;;;;0.20;0.20;;;;;;;;;;5047556;28;20049;-77
2024/01/16 11:28:56;;;;;;;0.10;0.10;;;;;;;;;;5055875;28;20044;-76
2024/01/16 11:31:31;;;;;;;0.20;0.20;;;;;;;;;;5058552;28;20041;-77
2024/01/16 11:33:59;;;;;;;0.40;0.40;;;;;;;;;;5067237;28;20404;-76
2024/01/16 11:36:44;;;;;;;0.45;0.45;;;;;;;;;;5063111;28;20045;-77
2024/01/16 11:39:17;;;;;;;0.10;0.10;;;;;;;;;;5065936;28;20094;-76
2024/01/16 11:41:51;;;;;;;0.80;0.80;;;;;;;;;;5063277;28;20083;-77
2024/01/16 11:44:38;;;;;;;0.55;0.55;;;;;;;;;;5064480;28;20093;-77
2024/01/16 11:47:07;;;;;;;0.50;0.50;;;;;;;;;;5063580;28;20422;-77
2024/01/16 11:49:38;;;;;;;1.17;0.95;;;;;;;;;;5066400;28;20525;-77
2024/01/16 11:52:06;;;;;;;0.10;0.10;;;;;;;;;;5067129;28;20045;-77
2024/01/16 11:54:34;;;;;;;0.50;0.50;;;;;;;;;;5062425;28;20300;-77
2024/01/16 11:57:18;;;;;;;1.05;0.95;;;;;;;;;;5060844;28;20583;-77
2024/01/16 11:59:54;;;;;;;1.33;1.23;;;;;;;;;;5043185;28;20048;-77
2024/01/16 12:02:25;;;;;;;0.60;0.60;;;;;;;;;;5048251;28;20114;-77
2024/01/16 12:04:58;;;;;;;0.47;0.30;;;;;;;;;;5052329;28;20040;-76
2024/01/16 12:07:26;;;;;;;0.28;0.28;;;;;;;;;;5047241;28;20414;-76
2024/01/16 12:09:59;;;;;;;0.65;0.65;;;;;;;;;;5065159;28;20559;-76
2024/01/16 12:12:27;;;;;;;0.55;0.55;;;;;;;;;;5065264;28;20075;-77
2024/01/16 12:14:54;;;;;;;0.20;0.20;;;;;;;;;;5067365;28;20036;-76
2024/01/16 12:17:28;;;;;;;0.35;0.35;;;;;;;;;;5063760;28;20051;-76
2024/01/16 12:19:56;;;;;;;0.60;0.60;;;;;;;;;;5067569;28;20127;-76
2024/01/16 12:22:24;;;;;;;0.32;0.32;;;;;;;;;;5067001;28;20052;-76
2024/01/16 12:24:58;;;;;;;0.60;0.60;;;;;;;;;;5064227;28;20048;-77
2024/01/16 12:27:26;;;;;;;0.52;0.47;;;;;;;;;;5067185;28;20056;-77
2024/01/16 12:30:05;;;;;;;0.32;0.32;;;;;;;;;;5052390;28;20117;-76
2024/01/16 12:32:33;;;;;;;0.47;0.47;;;;;;;;;;5059823;28;20415;-77
2024/01/16 12:35:01;;;;;;;1.75;1.17;;;;;;;;;;5069206;28;20036;-77
2024/01/16 12:37:29;;;;;;;1.88;0.45;;;;;;;;;;5062371;28;20498;-77
2024/01/16 12:39:57;;;;;;;0.63;0.63;;;;;;;;;;5058138;28;20128;-77
2024/01/16 12:42:29;;;;;;;2.08;1.60;;;;;;;;;;5056305;28;20036;-78
2024/01/16 12:44:57;;;;;;;0.75;0.65;;;;;;;;;;5060884;28;20047;-75
2024/01/16 12:47:25;;;;;;;1.40;1.30;;;;;;;;;;5064397;28;20068;-77
2024/01/16 12:49:53;;;;;;;0.82;0.60;;;;;;;;;;5050720;28;20048;-77
2024/01/16 12:52:26;;;;;;;0.20;0.20;;;;;;;;;;5067793;28;20560;-77
2024/01/16 12:55:00;;;;;;;0.30;0.30;;;;;;;;;;5047973;28;20478;-75
2024/01/16 12:57:29;;;;;;;1.65;0.55;;;;;;;;;;5046189;28;20048;-75
2024/01/16 13:00:00;;;;;;;0.60;0.60;;;;;;;;;;5046146;28;20285;-77
2024/01/16 13:02:33;;;;;;;0.20;0.20;;;;;;;;;;5053389;28;20144;-75
2024/01/16 13:05:03;;;;;;;5.28;0.68;;;;;;;;;;5056393;28;20861;-75
2024/01/16 13:07:32;;;;;;;6.72;1.35;;;;;;;;;;5063042;28;20074;-76
2024/01/16 13:10:11;;;;;;;0.30;0.30;;;;;;;;;;5061992;28;20051;-76
2024/01/16 13:12:39;;;;;;;0.63;0.63;;;;;;;;;;5066153;28;20506;-76
2024/01/16 13:15:08;;;;;;;2.03;1.00;;;;;;;;;;5057745;28;20053;-76
2024/01/16 13:17:36;;;;;;;0.30;0.30;;;;;;;;;;5063385;28;20053;-76
2024/01/16 13:20:08;;;;;;;0.22;0.22;;;;;;;;;;5062798;28;20036;-76
2024/01/16 13:22:36;;;;;;;0.10;0.10;;;;;;;;;;5066132;28;20132;-75
2024/01/16 13:25:13;;;;;;;0.20;0.20;;;;;;;;;;5062874;28;20555;-77
2024/01/16 13:27:53;;;;;;;0.10;0.10;;;;;;;;;;5042950;28;20088;-77
2024/01/16 13:30:20;;;;;;;1.23;1.13;;;;;;;;;;5062449;28;20134;-76
2024/01/16 13:32:48;;;;;;;0.75;0.65;;;;;;;;;;5061565;28;20045;-78
2024/01/16 13:35:16;;;;;;;0.40;0.40;;;;;;;;;;5038828;28;20670;-77
2024/01/16 13:37:44;;;;;;;0.85;0.85;;;;;;;;;;5058339;28;20049;-75
2024/01/16 13:40:19;;;;;;;0.17;0.17;;;;;;;;;;5040224;28;20040;-77
2024/01/16 13:42:49;;;;;;;1.05;0.98;;;;;;;;;;5058543;28;20127;-77
2024/01/16 13:45:18;;;;;;;0.35;0.35;;;;;;;;;;5049767;28;20206;-77
2024/01/16 13:47:48;;;;;;;0.38;0.38;;;;;;;;;;5064308;28;20422;-77
2024/01/16 13:50:17;;;;;;;0.55;0.55;;;;;;;;;;5060811;28;20040;-77
2024/01/16 13:52:45;;;;;;;0.82;0.70;;;;;;;;;;5063736;28;20044;-77
2024/01/16 13:55:12;;;;;;;0.47;0.20;;;;;;;;;;5047790;28;20041;-77
2024/01/16 13:57:41;;;;;;;2.83;0.75;;;;;;;;;;5042202;28;20044;-77
2024/01/16 14:00:13;;;;;;;0.45;0.45;;;;;;;;;;5060653;28;20048;-76
2024/01/16 14:02:45;;;;;;;0.45;0.45;;;;;;;;;;5056725;28;20040;-77
2024/01/16 14:05:22;;;;;;;0.30;0.30;;;;;;;;;;5034629;28;20064;-77
2024/01/16 14:07:51;;;;;;;2.20;1.08;;;;;;;;;;5054629;28;20041;-77
2024/01/16 14:10:20;;;;;;;0.20;0.20;;;;;;;;;;5022934;28;20049;-77
2024/01/16 14:12:48;;;;;;;0.63;0.63;;;;;;;;;;5060169;28;20090;-77
2024/01/16 14:15:24;;;;;;;0.20;0.20;;;;;;;;;;5058834;28;20057;-77
2024/01/16 14:17:53;;;;;;;4.20;0.90;;;;;;;;;;5034768;28;20044;-77
2024/01/16 14:20:23;;;;;;;0.75;0.75;;;;;;;;;;5059618;28;20378;-75
2024/01/16 14:22:55;;;;;;;0.30;0.30;;;;;;;;;;5062740;28;20135;-75
2024/01/16 14:25:22;;;;;;;0.10;0.10;;;;;;;;;;5061261;28;20126;-76
2024/01/16 14:28:03;;;;;;;1.00;0.90;;;;;;;;;;5063311;28;20052;-75
2024/01/16 14:30:35;;;;;;;0.47;0.47;;;;;;;;;;5061515;28;20044;-75
2024/01/16 14:33:08;;;;;;;2.72;1.42;;;;;;;;;;5063349;28;20050;-75
2024/01/16 14:35:36;;;;;;;0.20;0.20;;;;;;;;;;5061398;28;20045;-75
2024/01/16 14:38:03;;;;;;;0.20;0.20;;;;;;;;;;5059387;28;20049;-76
2024/01/16 14:40:31;;;;;;;0.10;0.10;;;;;;;;;;5062820;28;20105;-76
2024/01/16 14:43:03;;;;;;;1.27;1.27;;;;;;;;;;5063610;28;20049;-74
2024/01/16 14:45:32;;;;;;;0.30;0.30;;;;;;;;;;5045667;28;20044;-75
2024/01/16 14:48:00;;;;;;;0.35;0.35;;;;;;;;;;5045425;28;20053;-75
2024/01/16 14:50:30;;;;;;;1.30;1.20;;;;;;;;;;5063442;28;20131;-75
2024/01/16 14:52:58;;;;;;;0.85;0.85;;;;;;;;;;5063165;28;20123;-75
2024/01/16 14:55:26;;;;;;;0.70;0.65;;;;;;;;;;5062598;28;20044;-75
2024/01/16 14:57:59;;;;;;;1.05;0.98;;;;;;;;;;5063580;28;20044;-75
2024/01/16 15:00:28;;;;;;;0.22;0.22;;;;;;;;;;5040170;28;20511;-75
2024/01/16 15:02:56;;;;;;;0.55;0.40;;;;;;;;;;5043082;28;20432;-75
2024/01/16 15:05:25;;;;;;;0.63;0.63;;;;;;;;;;5048393;28;20048;-75
2024/01/16 15:07:52;;;;;;;2.15;1.33;;;;;;;;;;5054507;28;20044;-74
2024/01/16 15:10:21;;;;;;;7.82;1.73;;;;;;;;;;5058115;28;20092;-74
2024/01/16 15:12:48;;;;;;;0.47;0.47;;;;;;;;;;5061757;28;20402;-74
2024/01/16 15:15:16;;;;;;;2.10;1.75;;;;;;;;;;5063093;28;20048;-74
2024/01/16 15:17:48;;;;;;;1.27;0.85;;;;;;;;;;5060121;28;20048;-74
2024/01/16 15:20:18;;;;;;;1.35;0.50;;;;;;;;;;5061984;28;20048;-75
2024/01/16 15:22:46;;;;;;;4.90;0.93;;;;;;;;;;5061544;28;20056;-74
2024/01/16 15:25:15;;;;;;;0.43;0.43;;;;;;;;;;5063252;28;20075;-74
2024/01/16 15:27:45;;;;;;;0.90;0.85;;;;;;;;;;5060132;28;20060;-74
2024/01/16 15:30:14;;;;;;;2.75;1.30;;;;;;;;;;5058689;28;20056;-74